Cedar Falls, Iowa
Current Conditions -  °F | °C
As of 6:54 AM on Sunday 23 Nov 2014 (Local Time) from KALO Reporting Station
Overcast Overcast  
Wind Chill: 11°   Ceiling: 500
Heat Index: 11°   Visibility: 8mi
Dew Point: 10°   Wind: 14mph
Humidity: 96%   Direction: 170°S
Pressure: 29.54"   Gusts: NA
Location:  42.53°N, 92.44°W
Report Text: KALO 231254Z 17012KT 8SM OVC005 11/10 A2954 RMK AO2 SLP005 T01060100 $
Loading
Personal Weather Stations






























Interactive Weather Map New forecast layout! Learn more

10-Day Weather Forecast

Advertisements
Track Severe Weather on mobile